sensor_id;sensor_type;location;lat;lon;timestamp;pressure;altitude;pressure_sealevel;temperature;humidity
32330;BME280;18807;52.434;13.238;2022-09-09T00:03:10;100665.97;;;15.45;100.00
32330;BME280;18807;52.434;13.238;2022-09-09T00:10:49;100666.91;;;15.40;100.00
32330;BME280;18807;52.434;13.238;2022-09-09T00:18:30;100659.72;;;15.34;100.00
32330;BME280;18807;52.434;13.238;2022-09-09T00:26:11;100656.19;;;15.28;100.00
32330;BME280;18807;52.434;13.238;2022-09-09T00:33:48;100648.13;;;15.23;100.00
32330;BME280;18807;52.434;13.238;2022-09-09T00:41:29;100647.28;;;15.14;100.00
32330;BME280;18807;52.434;13.238;2022-09-09T00:49:17;100638.34;;;15.07;100.00
32330;BME280;18807;52.434;13.238;2022-09-09T00:57:03;100650.97;;;14.98;100.00
32330;BME280;18807;52.434;13.238;2022-09-09T01:04:41;100650.97;;;14.92;100.00
32330;BME280;18807;52.434;13.238;2022-09-09T01:12:23;100659.09;;;14.83;100.00
32330;BME280;18807;52.434;13.238;2022-09-09T01:20:04;100658.19;;;14.78;100.00
32330;BME280;18807;52.434;13.238;2022-09-09T01:27:43;100652.84;;;14.72;100.00
32330;BME280;18807;52.434;13.238;2022-09-09T01:35:29;100661.84;;;14.66;100.00
32330;BME280;18807;52.434;13.238;2022-09-09T01:43:07;100652.00;;;14.61;100.00
32330;BME280;18807;52.434;13.238;2022-09-09T01:50:41;100654.72;;;14.55;100.00
32330;BME280;18807;52.434;13.238;2022-09-09T01:58:24;100654.72;;;14.47;100.00
32330;BME280;18807;52.434;13.238;2022-09-09T02:06:12;100666.41;;;14.40;100.00
32330;BME280;18807;52.434;13.238;2022-09-09T02:13:52;100661.91;;;14.35;100.00
32330;BME280;18807;52.434;13.238;2022-09-09T02:21:29;100669.09;;;14.30;100.00
32330;BME280;18807;52.434;13.238;2022-09-09T02:29:08;100661.94;;;14.27;100.00
32330;BME280;18807;52.434;13.238;2022-09-09T02:36:44;100658.31;;;14.22;100.00
32330;BME280;18807;52.434;13.238;2022-09-09T02:44:20;100663.72;;;14.18;100.00
32330;BME280;18807;52.434;13.238;2022-09-09T02:52:00;100666.41;;;14.15;100.00
32330;BME280;18807;52.434;13.238;2022-09-09T02:59:36;100662.81;;;14.09;100.00
32330;BME280;18807;52.434;13.238;2022-09-09T03:07:10;100673.56;;;14.05;100.00
32330;BME280;18807;52.434;13.238;2022-09-09T03:14:45;100678.06;;;14.00;100.00
32330;BME280;18807;52.434;13.238;2022-09-09T03:22:19;100680.72;;;13.97;100.00
32330;BME280;18807;52.434;13.238;2022-09-09T03:29:54;100690.56;;;13.90;100.00
32330;BME280;18807;52.434;13.238;2022-09-09T03:37:28;100682.50;;;13.87;100.00
32330;BME280;18807;52.434;13.238;2022-09-09T03:45:04;100691.47;;;13.82;100.00
32330;BME280;18807;52.434;13.238;2022-09-09T03:52:40;100693.25;;;13.77;100.00
32330;BME280;18807;52.434;13.238;2022-09-09T04:00:16;100684.31;;;13.73;100.00
32330;BME280;18807;52.434;13.238;2022-09-09T04:07:49;100685.19;;;13.69;100.00
32330;BME280;18807;52.434;13.238;2022-09-09T04:15:25;100682.50;;;13.66;100.00
32330;BME280;18807;52.434;13.238;2022-09-09T04:22:59;100692.34;;;13.61;100.00
32330;BME280;18807;52.434;13.238;2022-09-09T04:30:34;100708.44;;;13.58;100.00
32330;BME280;18807;52.434;13.238;2022-09-09T04:38:08;100700.38;;;13.54;100.00
32330;BME280;18807;52.434;13.238;2022-09-09T04:45:43;100716.47;;;13.52;100.00
32330;BME280;18807;52.434;13.238;2022-09-09T04:53:17;100713.78;;;13.52;100.00
32330;BME280;18807;52.434;13.238;2022-09-09T05:00:52;100714.69;;;13.51;100.00
32330;BME280;18807;52.434;13.238;2022-09-09T05:08:26;100712.88;;;13.52;100.00
32330;BME280;18807;52.434;13.238;2022-09-09T05:16:01;100712.00;;;13.57;100.00
32330;BME280;18807;52.434;13.238;2022-09-09T05:23:36;100712.94;;;13.68;100.00
32330;BME280;18807;52.434;13.238;2022-09-09T05:31:12;100712.94;;;13.80;100.00
32330;BME280;18807;52.434;13.238;2022-09-09T05:38:47;100706.69;;;13.87;100.00
32330;BME280;18807;52.434;13.238;2022-09-09T05:46:23;100716.53;;;13.99;100.00
32330;BME280;18807;52.434;13.238;2022-09-09T05:53:58;100726.41;;;14.12;100.00
32330;BME280;18807;52.434;13.238;2022-09-09T06:01:35;100732.69;;;14.26;100.00
32330;BME280;18807;52.434;13.238;2022-09-09T06:09:13;100738.06;;;14.34;100.00
32330;BME280;18807;52.434;13.238;2022-09-09T06:16:49;100733.59;;;14.40;100.00
32330;BME280;18807;52.434;13.238;2022-09-09T06:24:22;100743.41;;;14.53;100.00
32330;BME280;18807;52.434;13.238;2022-09-09T06:31:57;100754.16;;;14.58;100.00
32330;BME280;18807;52.434;13.238;2022-09-09T06:39:31;100748.78;;;14.62;100.00
32330;BME280;18807;52.434;13.238;2022-09-09T06:47:07;100749.66;;;14.67;100.00
32330;BME280;18807;52.434;13.238;2022-09-09T06:54:40;100754.13;;;14.77;100.00
32330;BME280;18807;52.434;13.238;2022-09-09T07:02:15;100737.06;;;14.89;100.00
32330;BME280;18807;52.434;13.238;2022-09-09T07:09:49;100743.25;;;15.10;100.00
32330;BME280;18807;52.434;13.238;2022-09-09T07:17:24;100735.09;;;15.33;100.00
32330;BME280;18807;52.434;13.238;2022-09-09T07:24:58;100739.47;;;15.61;100.00
32330;BME280;18807;52.434;13.238;2022-09-09T07:32:33;100743.72;;;15.96;100.00
32330;BME280;18807;52.434;13.238;2022-09-09T07:40:07;100752.47;;;16.29;100.00
32330;BME280;18807;52.434;13.238;2022-09-09T07:47:42;100757.66;;;16.51;100.00
32330;BME280;18807;52.434;13.238;2022-09-09T07:55:16;100770.00;;;16.81;100.00
32330;BME280;18807;52.434;13.238;2022-09-09T08:02:51;100768.91;;;16.98;100.00
32330;BME280;18807;52.434;13.238;2022-09-09T08:10:26;100771.34;;;17.21;100.00
32330;BME280;18807;52.434;13.238;2022-09-09T08:18:01;100786.59;;;17.23;100.00
32330;BME280;18807;52.434;13.238;2022-09-09T08:25:36;100778.47;;;17.26;100.00
32330;BME280;18807;52.434;13.238;2022-09-09T08:33:11;100774.63;;;17.48;100.00
32330;BME280;18807;52.434;13.238;2022-09-09T08:40:45;100777.09;;;17.66;100.00
32330;BME280;18807;52.434;13.238;2022-09-09T08:48:40;100785.94;;;17.76;100.00
32330;BME280;18807;52.434;13.238;2022-09-09T08:56:18;100779.63;;;17.78;100.00
32330;BME280;18807;52.434;13.238;2022-09-09T09:04:00;100790.28;;;17.89;100.00
32330;BME280;18807;52.434;13.238;2022-09-09T09:11:38;100784.50;;;18.13;100.00
32330;BME280;18807;52.434;13.238;2022-09-09T09:19:15;100783.69;;;18.64;100.00
32330;BME280;18807;52.434;13.238;2022-09-09T09:26:50;100773.75;;;19.57;100.00
32330;BME280;18807;52.434;13.238;2022-09-09T09:34:27;100788.19;;;20.37;100.00
32330;BME280;18807;52.434;13.238;2022-09-09T09:42:09;100785.50;;;20.36;97.58
32330;BME280;18807;52.434;13.238;2022-09-09T09:49:53;100773.78;;;21.04;93.15
32330;BME280;18807;52.434;13.238;2022-09-09T09:57:30;100782.47;;;20.84;88.20
32330;BME280;18807;52.434;13.238;2022-09-09T10:05:13;100787.84;;;20.51;87.24
32330;BME280;18807;52.434;13.238;2022-09-09T10:12:57;100787.78;;;20.54;91.81
32330;BME280;18807;52.434;13.238;2022-09-09T10:20:40;100789.97;;;20.40;87.20
32330;BME280;18807;52.434;13.238;2022-09-09T10:28:30;100791.50;;;20.50;90.88
32330;BME280;18807;52.434;13.238;2022-09-09T10:36:12;100787.66;;;20.92;88.32
32330;BME280;18807;52.434;13.238;2022-09-09T10:44:02;100775.56;;;21.37;78.46
32330;BME280;18807;52.434;13.238;2022-09-09T10:51:50;100784.25;;;21.19;79.12
32330;BME280;18807;52.434;13.238;2022-09-09T10:59:29;100780.53;;;21.23;83.39
32330;BME280;18807;52.434;13.238;2022-09-09T11:07:09;100783.72;;;21.37;81.87
32330;BME280;18807;52.434;13.238;2022-09-09T11:14:45;100770.50;;;21.55;82.72
32330;BME280;18807;52.434;13.238;2022-09-09T11:22:27;100780.78;;;21.75;73.35
32330;BME280;18807;52.434;13.238;2022-09-09T11:30:13;100781.38;;;21.86;74.01
32330;BME280;18807;52.434;13.238;2022-09-09T11:38:19;100764.63;;;22.00;74.16
32330;BME280;18807;52.434;13.238;2022-09-09T11:45:57;100760.97;;;22.01;70.69
32330;BME280;18807;52.434;13.238;2022-09-09T11:53:35;100747.56;;;22.22;69.24
32330;BME280;18807;52.434;13.238;2022-09-09T12:01:26;100749.91;;;22.34;68.21
32330;BME280;18807;52.434;13.238;2022-09-09T12:09:09;100743.75;;;22.28;69.17
32330;BME280;18807;52.434;13.238;2022-09-09T12:16:46;100719.91;;;22.62;63.56
32330;BME280;18807;52.434;13.238;2022-09-09T12:24:28;100726.56;;;22.53;63.67
32330;BME280;18807;52.434;13.238;2022-09-09T12:32:07;100731.41;;;22.44;65.93
32330;BME280;18807;52.434;13.238;2022-09-09T12:39:45;100720.09;;;22.30;65.63
32330;BME280;18807;52.434;13.238;2022-09-09T12:47:25;100723.91;;;22.24;64.62
32330;BME280;18807;52.434;13.238;2022-09-09T12:55:06;100730.25;;;22.25;66.69
32330;BME280;18807;52.434;13.238;2022-09-09T13:02:51;100739.59;;;22.16;67.93
32330;BME280;18807;52.434;13.238;2022-09-09T13:10:29;100745.38;;;22.06;68.02
32330;BME280;18807;52.434;13.238;2022-09-09T13:18:22;100729.31;;;21.98;68.53
32330;BME280;18807;52.434;13.238;2022-09-09T13:26:00;100719.47;;;21.94;68.74
32330;BME280;18807;52.434;13.238;2022-09-09T13:33:36;100703.88;;;21.99;69.68
32330;BME280;18807;52.434;13.238;2022-09-09T13:41:19;100710.44;;;22.20;67.34
32330;BME280;18807;52.434;13.238;2022-09-09T13:48:54;100705.75;;;22.25;65.55
32330;BME280;18807;52.434;13.238;2022-09-09T13:56:30;100701.66;;;22.38;66.96
32330;BME280;18807;52.434;13.238;2022-09-09T14:04:05;100702.56;;;22.38;65.73
32330;BME280;18807;52.434;13.238;2022-09-09T14:11:40;100693.59;;;22.35;65.51
32330;BME280;18807;52.434;13.238;2022-09-09T14:19:14;100697.25;;;22.34;65.93
32330;BME280;18807;52.434;13.238;2022-09-09T14:26:49;100705.75;;;22.51;63.49
32330;BME280;18807;52.434;13.238;2022-09-09T14:34:23;100697.81;;;22.43;64.00
32330;BME280;18807;52.434;13.238;2022-09-09T14:41:58;100699.09;;;22.33;66.25
32330;BME280;18807;52.434;13.238;2022-09-09T14:49:32;100714.00;;;22.22;67.71
32330;BME280;18807;52.434;13.238;2022-09-09T14:57:07;100716.97;;;22.14;68.29
32330;BME280;18807;52.434;13.238;2022-09-09T15:04:41;100710.94;;;22.05;68.20
32330;BME280;18807;52.434;13.238;2022-09-09T15:12:16;100696.47;;;22.04;70.36
32330;BME280;18807;52.434;13.238;2022-09-09T15:19:51;100686.69;;;21.99;70.30
32330;BME280;18807;52.434;13.238;2022-09-09T15:27:26;100680.34;;;21.98;69.77
32330;BME280;18807;52.434;13.238;2022-09-09T15:35:00;100664.91;;;21.99;71.83
32330;BME280;18807;52.434;13.238;2022-09-09T15:42:35;100659.97;;;22.10;72.50
32330;BME280;18807;52.434;13.238;2022-09-09T15:50:09;100656.69;;;22.26;69.09
32330;BME280;18807;52.434;13.238;2022-09-09T15:57:44;100650.56;;;22.46;68.11
32330;BME280;18807;52.434;13.238;2022-09-09T16:05:18;100656.44;;;22.34;67.44
32330;BME280;18807;52.434;13.238;2022-09-09T16:12:54;100683.41;;;22.14;68.20
32330;BME280;18807;52.434;13.238;2022-09-09T16:20:28;100691.13;;;22.01;69.16
32330;BME280;18807;52.434;13.238;2022-09-09T16:28:03;100713.47;;;21.83;68.75
32330;BME280;18807;52.434;13.238;2022-09-09T16:35:38;100711.03;;;21.74;69.48
32330;BME280;18807;52.434;13.238;2022-09-09T16:43:13;100702.50;;;21.57;68.86
32330;BME280;18807;52.434;13.238;2022-09-09T16:50:48;100708.13;;;21.51;70.46
32330;BME280;18807;52.434;13.238;2022-09-09T16:58:23;100695.97;;;21.32;71.06
32330;BME280;18807;52.434;13.238;2022-09-09T17:05:57;100696.34;;;21.21;73.29
32330;BME280;18807;52.434;13.238;2022-09-09T17:13:35;100701.25;;;21.07;75.28
32330;BME280;18807;52.434;13.238;2022-09-09T17:21:12;100699.97;;;20.88;76.48
32330;BME280;18807;52.434;13.238;2022-09-09T17:28:47;100688.75;;;20.68;78.08
32330;BME280;18807;52.434;13.238;2022-09-09T17:36:23;100677.66;;;20.44;78.60
32330;BME280;18807;52.434;13.238;2022-09-09T17:44:01;100694.78;;;20.12;77.62
32330;BME280;18807;52.434;13.238;2022-09-09T17:51:36;100703.34;;;19.93;79.54
32330;BME280;18807;52.434;13.238;2022-09-09T17:59:12;100697.00;;;19.55;80.08
32330;BME280;18807;52.434;13.238;2022-09-09T18:06:48;100709.78;;;19.50;78.70
32330;BME280;18807;52.434;13.238;2022-09-09T18:14:25;100718.84;;;19.48;78.23
32330;BME280;18807;52.434;13.238;2022-09-09T18:21:59;100730.81;;;19.38;78.02
32330;BME280;18807;52.434;13.238;2022-09-09T18:29:35;100750.88;;;19.29;78.95
32330;BME280;18807;52.434;13.238;2022-09-09T18:37:09;100766.69;;;19.05;80.95
32330;BME280;18807;52.434;13.238;2022-09-09T18:44:44;100779.94;;;18.71;83.16
32330;BME280;18807;52.434;13.238;2022-09-09T18:52:18;100799.81;;;18.70;85.32
32330;BME280;18807;52.434;13.238;2022-09-09T18:59:53;100795.50;;;18.60;88.12
32330;BME280;18807;52.434;13.238;2022-09-09T19:07:27;100797.66;;;18.37;95.07
32330;BME280;18807;52.434;13.238;2022-09-09T19:15:03;100803.47;;;18.10;100.00
32330;BME280;18807;52.434;13.238;2022-09-09T19:22:37;100810.03;;;17.92;100.00
32330;BME280;18807;52.434;13.238;2022-09-09T19:30:12;100802.09;;;17.80;100.00
32330;BME280;18807;52.434;13.238;2022-09-09T19:37:46;100814.69;;;17.83;100.00
32330;BME280;18807;52.434;13.238;2022-09-09T19:45:21;100818.50;;;17.65;100.00
32330;BME280;18807;52.434;13.238;2022-09-09T19:52:55;100809.59;;;17.59;100.00
32330;BME280;18807;52.434;13.238;2022-09-09T20:00:30;100815.94;;;17.58;100.00
32330;BME280;18807;52.434;13.238;2022-09-09T20:08:11;100809.75;;;17.47;100.00
32330;BME280;18807;52.434;13.238;2022-09-09T20:15:46;100816.06;;;17.47;99.26
32330;BME280;18807;52.434;13.238;2022-09-09T20:23:28;100832.31;;;17.41;98.84
32330;BME280;18807;52.434;13.238;2022-09-09T20:31:04;100832.41;;;17.32;98.39
32330;BME280;18807;52.434;13.238;2022-09-09T20:38:42;100827.19;;;17.16;99.47
32330;BME280;18807;52.434;13.238;2022-09-09T20:46:19;100805.66;;;17.10;100.00
32330;BME280;18807;52.434;13.238;2022-09-09T20:53:54;100800.34;;;17.01;100.00
32330;BME280;18807;52.434;13.238;2022-09-09T21:01:30;100781.63;;;16.84;100.00
32330;BME280;18807;52.434;13.238;2022-09-09T21:09:04;100779.84;;;16.83;100.00
32330;BME280;18807;52.434;13.238;2022-09-09T21:16:39;100777.22;;;16.77;100.00
32330;BME280;18807;52.434;13.238;2022-09-09T21:24:13;100779.94;;;16.73;100.00
32330;BME280;18807;52.434;13.238;2022-09-09T21:31:49;100784.63;;;16.51;100.00
32330;BME280;18807;52.434;13.238;2022-09-09T21:39:22;100789.25;;;16.33;100.00
32330;BME280;18807;52.434;13.238;2022-09-09T21:46:57;100793.75;;;16.31;100.00
32330;BME280;18807;52.434;13.238;2022-09-09T21:54:31;100787.56;;;16.23;100.00
32330;BME280;18807;52.434;13.238;2022-09-09T22:02:06;100781.28;;;16.18;100.00
32330;BME280;18807;52.434;13.238;2022-09-09T22:09:41;100792.22;;;15.96;100.00
32330;BME280;18807;52.434;13.238;2022-09-09T22:17:16;100801.19;;;16.00;100.00
32330;BME280;18807;52.434;13.238;2022-09-09T22:24:50;100808.38;;;15.95;100.00
32330;BME280;18807;52.434;13.238;2022-09-09T22:32:25;100801.19;;;15.97;100.00
32330;BME280;18807;52.434;13.238;2022-09-09T22:39:59;100808.38;;;15.95;100.00
32330;BME280;18807;52.434;13.238;2022-09-09T22:47:35;100812.00;;;15.92;100.00
32330;BME280;18807;52.434;13.238;2022-09-09T22:55:09;100812.03;;;15.86;100.00
32330;BME280;18807;52.434;13.238;2022-09-09T23:02:44;100807.59;;;15.79;100.00
32330;BME280;18807;52.434;13.238;2022-09-09T23:10:21;100788.78;;;15.70;100.00
32330;BME280;18807;52.434;13.238;2022-09-09T23:17:56;100796.88;;;15.66;100.00
32330;BME280;18807;52.434;13.238;2022-09-09T23:25:30;100811.38;;;15.38;100.00
32330;BME280;18807;52.434;13.238;2022-09-09T23:33:05;100788.06;;;15.29;100.00
32330;BME280;18807;52.434;13.238;2022-09-09T23:40:39;100789.84;;;15.32;100.00
32330;BME280;18807;52.434;13.238;2022-09-09T23:48:15;100795.25;;;15.21;100.00
32330;BME280;18807;52.434;13.238;2022-09-09T23:55:49;100787.19;;;15.21;100.00
